Time;durP1;ratioP1;P1;durP2;ratioP2;P2;SDS_P1;SDS_P2;PMS_P1;PMS_P2;Temp;Humidity;BMP_temperature;BMP_pressure;BME280_temperature;BME280_humidity;BME280_pressure;Samples;Min_cycle;Max_cycle;Signal;HPM_P1;HPM_P2
2023/04/03 00:01:07;;;;;;;5.73;3.03;;;10.70;47.80;;;;;;5033391;28;20876;-51
2023/04/03 00:03:34;;;;;;;2.73;2.53;;;10.70;47.70;;;;;;5042474;28;20212;-54
2023/04/03 00:06:00;;;;;;;3.70;3.10;;;10.60;47.90;;;;;;5042243;28;20640;-55
2023/04/03 00:08:26;;;;;;;2.80;2.60;;;10.60;47.80;;;;;;5044233;28;20451;-51
2023/04/03 00:10:51;;;;;;;4.13;3.33;;;10.70;47.90;;;;;;5041823;28;20204;-54
2023/04/03 00:13:17;;;;;;;7.60;2.67;;;10.60;47.80;;;;;;5039975;28;20224;-51
2023/04/03 00:15:43;;;;;;;2.60;2.40;;;10.60;47.80;;;;;;5051454;28;20303;-55
2023/04/03 00:18:09;;;;;;;2.60;2.40;;;10.60;47.70;;;;;;5036548;28;20197;-51
2023/04/03 00:20:35;;;;;;;3.63;3.00;;;10.50;47.90;;;;;;5045943;28;20974;-54
2023/04/03 00:23:01;;;;;;;3.10;2.80;;;10.50;47.80;;;;;;5043354;28;20200;-54
2023/04/03 00:25:27;;;;;;;2.87;2.60;;;10.50;47.70;;;;;;5041330;28;20196;-51
2023/04/03 00:27:53;;;;;;;2.97;2.70;;;10.50;47.60;;;;;;5040496;28;20450;-52
2023/04/03 00:30:21;;;;;;;2.90;2.70;;;10.50;47.70;;;;;;5039134;28;20477;-53
2023/04/03 00:32:49;;;;;;;4.03;2.30;;;10.50;47.90;;;;;;5037013;28;20258;-53
2023/04/03 00:35:17;;;;;;;3.57;2.70;;;10.50;47.80;;;;;;5040522;28;20478;-56
2023/04/03 00:37:43;;;;;;;2.97;2.77;;;10.50;47.90;;;;;;5043873;28;20546;-55
2023/04/03 00:40:11;;;;;;;3.70;2.80;;;10.50;47.80;;;;;;5047628;28;21002;-52
2023/04/03 00:42:37;;;;;;;2.80;2.50;;;10.50;47.70;;;;;;5048959;28;20435;-54
2023/04/03 00:45:03;;;;;;;3.73;3.13;;;10.60;47.70;;;;;;5037990;28;20454;-52
2023/04/03 00:47:30;;;;;;;2.90;2.70;;;10.60;47.70;;;;;;5034342;28;20447;-55
2023/04/03 00:49:57;;;;;;;3.20;2.70;;;10.60;47.70;;;;;;5039575;28;20201;-55
2023/04/03 00:52:29;;;;;;;3.30;3.00;;;10.60;47.80;;;;;;5036765;28;20446;-51
2023/04/03 00:55:00;;;;;;;3.17;2.87;;;10.60;47.70;;;;;;5037254;28;20571;-56
2023/04/03 00:57:27;;;;;;;3.07;2.77;;;10.60;47.80;;;;;;5034176;28;20435;-56
2023/04/03 00:59:59;;;;;;;2.70;2.50;;;10.70;47.80;;;;;;5032256;28;20447;-54
2023/04/03 01:02:25;;;;;;;3.23;2.73;;;10.70;47.80;;;;;;5046063;28;21128;-56
2023/04/03 01:04:51;;;;;;;2.70;2.30;;;10.70;47.90;;;;;;5037148;28;20550;-55
2023/04/03 01:07:23;;;;;;;2.90;2.70;;;10.70;47.80;;;;;;5047860;28;20573;-53
2023/04/03 01:09:52;;;;;;;2.87;2.60;;;10.50;47.50;;;;;;5035218;28;20197;-55
2023/04/03 01:12:24;;;;;;;2.47;2.27;;;10.50;47.80;;;;;;5040102;28;20519;-55
2023/04/03 01:14:55;;;;;;;3.10;2.80;;;10.50;47.80;;;;;;5037053;28;20456;-53
2023/04/03 01:17:31;;;;;;;3.93;2.90;;;10.40;47.40;;;;;;5045307;28;20851;-52
2023/04/03 01:20:22;;;;;;;3.30;3.00;;;10.10;47.70;;;;;;5032074;28;20477;-56
2023/04/03 01:23:08;;;;;;;2.53;2.33;;;10.10;47.90;;;;;;5041383;28;22262;-53
2023/04/03 01:25:42;;;;;;;6.90;3.00;;;9.80;48.80;;;;;;5043427;28;20569;-54
2023/04/03 01:28:11;;;;;;;2.97;2.67;;;9.70;48.60;;;;;;5042543;28;20812;-52
2023/04/03 01:31:00;;;;;;;3.77;2.70;;;9.50;48.70;;;;;;5034830;28;20450;-55
2023/04/03 01:33:26;;;;;;;2.30;2.10;;;9.60;49.10;;;;;;5034893;28;20501;-56
2023/04/03 01:35:52;;;;;;;3.30;3.00;;;9.50;48.40;;;;;;5040775;28;20578;-54
2023/04/03 01:38:17;;;;;;;4.10;2.83;;;9.50;48.40;;;;;;5031622;28;20553;-54
2023/04/03 01:40:43;;;;;;;2.90;2.70;;;9.40;48.30;;;;;;5040022;28;20710;-55
2023/04/03 01:43:08;;;;;;;3.00;2.80;;;9.40;48.40;;;;;;5039795;28;20193;-55
2023/04/03 01:45:34;;;;;;;3.00;2.80;;;9.50;48.20;;;;;;5047472;28;20196;-54
2023/04/03 01:48:00;;;;;;;2.73;2.53;;;9.50;48.00;;;;;;5046162;28;20246;-55
2023/04/03 01:50:25;;;;;;;3.97;2.70;;;9.50;48.00;;;;;;5037287;28;20201;-55
2023/04/03 01:52:51;;;;;;;3.47;2.30;;;9.20;47.90;;;;;;5040500;28;20246;-55
2023/04/03 01:55:17;;;;;;;2.60;2.40;;;9.30;48.10;;;;;;5032613;28;20267;-53
2023/04/03 01:57:42;;;;;;;2.73;2.53;;;9.30;48.00;;;;;;5042863;28;20237;-55
2023/04/03 02:00:09;;;;;;;3.23;2.60;;;9.40;48.10;;;;;;5036548;28;20217;-52
2023/04/03 02:02:34;;;;;;;2.97;2.43;;;9.50;47.90;;;;;;5043365;28;20200;-54
2023/04/03 02:05:00;;;;;;;2.60;2.40;;;9.50;47.60;;;;;;5036712;28;20502;-52
2023/04/03 02:07:26;;;;;;;2.30;2.20;;;9.50;47.80;;;;;;5040811;28;20200;-55
2023/04/03 02:09:51;;;;;;;3.70;3.30;;;9.50;47.90;;;;;;5032233;28;20204;-55
2023/04/03 02:12:17;;;;;;;2.70;2.50;;;9.50;47.90;;;;;;5040923;28;20684;-53
2023/04/03 02:14:43;;;;;;;3.00;2.40;;;9.50;47.80;;;;;;5039712;28;20189;-54
2023/04/03 02:17:08;;;;;;;2.70;2.50;;;9.50;48.00;;;;;;5031098;28;20285;-52
2023/04/03 02:19:37;;;;;;;5.73;3.17;;;9.50;48.20;;;;;;5032132;28;20679;-55
2023/04/03 02:22:04;;;;;;;2.77;2.50;;;9.50;48.20;;;;;;5038570;28;20201;-52
2023/04/03 02:24:30;;;;;;;3.90;2.83;;;9.60;48.20;;;;;;5037899;28;20529;-55
2023/04/03 02:26:55;;;;;;;3.40;2.50;;;9.70;48.30;;;;;;5033842;28;20431;-53
2023/04/03 02:29:21;;;;;;;3.20;2.90;;;9.70;48.60;;;;;;5038962;28;20201;-53
2023/04/03 02:31:47;;;;;;;3.27;2.33;;;9.70;49.00;;;;;;5044600;28;20559;-52
2023/04/03 02:34:12;;;;;;;4.70;3.13;;;9.60;49.10;;;;;;5039819;28;20184;-53
2023/04/03 02:36:38;;;;;;;2.47;2.27;;;9.50;49.40;;;;;;5047206;28;20224;-53
2023/04/03 02:39:04;;;;;;;3.47;2.67;;;9.60;49.60;;;;;;5037192;28;20602;-53
2023/04/03 02:41:34;;;;;;;2.70;2.27;;;9.70;49.50;;;;;;5035586;28;20194;-56
2023/04/03 02:44:01;;;;;;;2.60;2.40;;;9.70;49.40;;;;;;5034192;28;20189;-55
2023/04/03 02:46:26;;;;;;;2.70;2.50;;;9.80;49.60;;;;;;5030830;28;20439;-54
2023/04/03 02:48:52;;;;;;;4.33;2.90;;;9.70;49.60;;;;;;5035094;28;20926;-54
2023/04/03 02:51:17;;;;;;;3.57;2.90;;;9.60;49.60;;;;;;5036951;28;20196;-53
2023/04/03 02:53:43;;;;;;;2.50;2.30;;;9.70;49.50;;;;;;5050042;28;20224;-54
2023/04/03 02:56:09;;;;;;;2.93;2.30;;;9.80;49.50;;;;;;5034650;28;20263;-55
2023/04/03 02:58:35;;;;;;;4.60;2.90;;;9.80;49.30;;;;;;5043288;28;20189;-55
2023/04/03 03:01:01;;;;;;;3.00;2.70;;;9.50;48.90;;;;;;5037429;28;20625;-51
2023/04/03 03:03:27;;;;;;;2.50;2.30;;;9.70;48.90;;;;;;5043991;28;20450;-55
2023/04/03 03:06:13;;;;;;;2.90;2.60;;;9.70;48.70;;;;;;5039486;28;20616;-55
2023/04/03 03:08:39;;;;;;;2.50;2.30;;;9.90;48.30;;;;;;5043602;28;20660;-52
2023/04/03 03:11:05;;;;;;;2.43;2.10;;;10.00;47.30;;;;;;5051020;28;20816;-55
2023/04/03 03:13:31;;;;;;;2.60;2.40;;;10.00;46.90;;;;;;5034578;28;20450;-52
2023/04/03 03:15:57;;;;;;;3.87;2.93;;;10.00;46.60;;;;;;5047919;28;20256;-52
2023/04/03 03:18:23;;;;;;;2.57;2.30;;;9.90;47.80;;;;;;5048511;28;20478;-55
2023/04/03 03:20:53;;;;;;;4.07;2.67;;;10.00;47.20;;;;;;5042835;28;20263;-55
2023/04/03 03:23:19;;;;;;;7.03;2.60;;;9.90;47.90;;;;;;5046795;28;20249;-56
2023/04/03 03:25:44;;;;;;;2.67;2.47;;;9.80;48.20;;;;;;5045080;28;20458;-53
2023/04/03 03:28:11;;;;;;;2.97;2.67;;;9.70;48.40;;;;;;5049334;28;20180;-52
2023/04/03 03:30:37;;;;;;;2.70;2.50;;;9.40;48.90;;;;;;5042588;28;20660;-52
2023/04/03 03:33:03;;;;;;;3.00;2.73;;;9.30;49.20;;;;;;5045310;28;20530;-52
2023/04/03 03:35:28;;;;;;;3.20;2.90;;;9.20;49.20;;;;;;5050752;28;20223;-53
2023/04/03 03:37:54;;;;;;;2.50;2.30;;;9.10;49.40;;;;;;5045591;28;20447;-53
2023/04/03 03:40:19;;;;;;;2.33;2.13;;;9.10;49.60;;;;;;5033394;28;21506;-56
2023/04/03 03:42:45;;;;;;;3.20;2.50;;;9.20;49.60;;;;;;5039705;28;20201;-53
2023/04/03 03:45:11;;;;;;;3.90;2.60;;;9.10;49.20;;;;;;5033474;28;20645;-55
2023/04/03 03:47:36;;;;;;;2.70;2.50;;;9.10;49.30;;;;;;5044844;28;20189;-55
2023/04/03 03:50:03;;;;;;;3.20;2.40;;;9.10;49.00;;;;;;5033286;28;20220;-54
2023/04/03 03:52:30;;;;;;;2.50;2.30;;;9.10;48.60;;;;;;5031886;28;20197;-54
2023/04/03 03:54:56;;;;;;;6.47;2.80;;;9.20;48.70;;;;;;5034101;28;20519;-53
2023/04/03 03:57:21;;;;;;;2.30;2.10;;;9.20;48.40;;;;;;5037931;28;20482;-56
2023/04/03 03:59:51;;;;;;;3.20;2.17;;;9.20;47.80;;;;;;5037455;28;20955;-54
2023/04/03 04:02:17;;;;;;;2.30;2.10;;;9.10;48.30;;;;;;5038764;28;20193;-55
2023/04/03 04:04:42;;;;;;;2.80;2.57;;;9.10;48.00;;;;;;5048641;28;20450;-54
2023/04/03 04:07:08;;;;;;;3.37;2.43;;;9.00;47.60;;;;;;5035790;28;20263;-53
2023/04/03 04:09:33;;;;;;;3.00;2.30;;;9.00;47.70;;;;;;5034797;28;20200;-54
2023/04/03 04:11:59;;;;;;;2.50;2.30;;;8.90;47.80;;;;;;5034349;28;20304;-53
2023/04/03 04:14:24;;;;;;;2.87;2.57;;;8.90;47.90;;;;;;5039258;28;20192;-52
2023/04/03 04:16:50;;;;;;;3.30;3.00;;;8.80;48.20;;;;;;5048742;28;20235;-54
2023/04/03 04:19:16;;;;;;;2.20;2.10;;;8.90;48.30;;;;;;5045196;28;20782;-54
2023/04/03 04:21:41;;;;;;;2.63;2.43;;;8.90;47.90;;;;;;5036556;28;20207;-53
2023/04/03 04:24:08;;;;;;;2.80;2.50;;;8.90;47.50;;;;;;5041430;28;20192;-51
2023/04/03 04:26:34;;;;;;;2.67;2.47;;;8.90;46.80;;;;;;5040898;28;20228;-52
2023/04/03 04:29:00;;;;;;;2.30;2.10;;;9.10;46.50;;;;;;5032004;28;20463;-55
2023/04/03 04:31:25;;;;;;;3.73;2.30;;;9.40;46.50;;;;;;5039679;28;20271;-55
2023/04/03 04:33:51;;;;;;;4.50;2.57;;;9.50;46.10;;;;;;5034074;28;20204;-55
2023/04/03 04:36:16;;;;;;;2.03;1.90;;;9.50;45.90;;;;;;5041214;28;20221;-55
2023/04/03 04:38:42;;;;;;;2.33;2.23;;;9.60;45.90;;;;;;5036228;28;20225;-55
2023/04/03 04:41:08;;;;;;;2.50;2.30;;;9.60;46.00;;;;;;5034941;28;20770;-55
2023/04/03 04:43:33;;;;;;;2.17;1.90;;;9.50;45.90;;;;;;5044582;28;20196;-55
2023/04/03 04:46:08;;;;;;;4.53;2.57;;;9.50;45.90;;;;;;5032744;28;20279;-58
2023/04/03 04:48:34;;;;;;;2.60;2.40;;;9.50;45.90;;;;;;5032679;28;20200;-55
2023/04/03 04:51:00;;;;;;;5.13;2.60;;;9.40;46.00;;;;;;5032833;28;20790;-55
2023/04/03 04:53:26;;;;;;;4.17;2.70;;;9.50;46.10;;;;;;5046227;28;20478;-56
2023/04/03 04:55:52;;;;;;;2.20;2.00;;;9.60;46.50;;;;;;5036607;28;20355;-55
2023/04/03 04:58:18;;;;;;;2.40;2.20;;;9.60;46.90;;;;;;5044475;28;20199;-56
2023/04/03 05:00:44;;;;;;;2.60;2.40;;;9.70;46.90;;;;;;5037725;28;20644;-56
2023/04/03 05:03:10;;;;;;;1.83;1.73;;;9.80;46.60;;;;;;5037667;28;20483;-56
2023/04/03 05:05:36;;;;;;;2.37;2.17;;;9.90;46.30;;;;;;5037395;28;20721;-56
2023/04/03 05:08:02;;;;;;;3.07;2.77;;;9.90;46.30;;;;;;5036454;28;20184;-55
2023/04/03 05:10:28;;;;;;;2.20;2.00;;;9.70;46.30;;;;;;5035057;28;20189;-55
2023/04/03 05:12:54;;;;;;;2.50;2.30;;;9.80;46.70;;;;;;5036129;28;20448;-53
2023/04/03 05:15:20;;;;;;;2.37;2.17;;;9.90;46.90;;;;;;5037981;28;20474;-54
2023/04/03 05:17:45;;;;;;;2.50;2.17;;;10.10;48.70;;;;;;5041785;28;20217;-54
2023/04/03 05:20:12;;;;;;;3.20;2.43;;;10.30;50.00;;;;;;5033943;28;20475;-54
2023/04/03 05:22:37;;;;;;;2.60;2.43;;;10.40;49.20;;;;;;5039719;28;21799;-55
2023/04/03 05:25:03;;;;;;;3.67;2.80;;;10.60;48.60;;;;;;5035860;28;20496;-52
2023/04/03 05:27:29;;;;;;;3.60;2.80;;;10.60;48.60;;;;;;5033834;28;20699;-54
2023/04/03 05:29:55;;;;;;;2.73;2.37;;;10.90;49.30;;;;;;5033660;28;20440;-54
2023/04/03 05:32:25;;;;;;;2.80;2.60;;;11.00;48.70;;;;;;5031967;28;20204;-55
2023/04/03 05:34:51;;;;;;;2.50;2.30;;;11.10;47.20;;;;;;5035654;28;20459;-52
2023/04/03 05:37:17;;;;;;;2.47;2.27;;;11.20;47.20;;;;;;5036474;28;20491;-52
2023/04/03 05:39:43;;;;;;;2.80;2.53;;;11.30;46.90;;;;;;5039783;28;20258;-55
2023/04/03 05:42:08;;;;;;;3.83;3.27;;;11.30;46.40;;;;;;5048394;28;20478;-54
2023/04/03 05:44:34;;;;;;;3.10;2.47;;;11.20;46.10;;;;;;5047655;28;20637;-54
2023/04/03 05:47:00;;;;;;;2.87;2.63;;;11.20;45.90;;;;;;5050584;28;20188;-55
2023/04/03 05:49:26;;;;;;;3.07;2.80;;;11.20;46.20;;;;;;5047024;28;20496;-54
2023/04/03 05:51:51;;;;;;;2.40;2.30;;;11.20;45.30;;;;;;5042076;28;20587;-54
2023/04/03 05:54:24;;;;;;;2.83;2.33;;;10.90;45.30;;;;;;5046453;28;20701;-54
2023/04/03 05:56:50;;;;;;;2.70;2.50;;;11.00;45.80;;;;;;5039196;28;20596;-54
2023/04/03 05:59:17;;;;;;;2.60;2.40;;;11.00;45.60;;;;;;5048202;28;20443;-54
2023/04/03 06:01:43;;;;;;;3.60;3.37;;;11.10;45.50;;;;;;5045738;28;20446;-51
2023/04/03 06:04:09;;;;;;;4.57;3.80;;;11.10;44.60;;;;;;5050659;28;20438;-54
2023/04/03 06:06:52;;;;;;;3.67;2.87;;;11.10;44.30;;;;;;5035593;28;20435;-55
2023/04/03 06:09:19;;;;;;;3.67;3.17;;;11.20;44.70;;;;;;5045940;28;20219;-53
2023/04/03 06:11:45;;;;;;;2.80;2.43;;;11.10;44.20;;;;;;5040238;28;20440;-53
2023/04/03 06:14:11;;;;;;;4.43;2.53;;;11.10;45.00;;;;;;5035285;28;20449;-54
2023/04/03 06:16:38;;;;;;;3.03;2.83;;;11.20;45.20;;;;;;5045424;28;20836;-51
2023/04/03 06:19:04;;;;;;;2.77;2.43;;;11.30;45.30;;;;;;5044952;28;20287;-55
2023/04/03 06:21:30;;;;;;;2.57;2.30;;;11.30;44.60;;;;;;5046275;28;20439;-54
2023/04/03 06:23:56;;;;;;;3.00;2.80;;;11.40;44.90;;;;;;5046932;28;20458;-51
2023/04/03 06:26:22;;;;;;;2.60;2.43;;;11.40;44.90;;;;;;5045209;28;20448;-55
2023/04/03 06:28:47;;;;;;;3.10;2.80;;;11.50;44.20;;;;;;5045318;28;20542;-54
2023/04/03 06:31:15;;;;;;;2.10;2.00;;;11.50;44.10;;;;;;5039228;28;20476;-56
2023/04/03 06:33:41;;;;;;;2.60;2.40;;;11.60;44.60;;;;;;5039902;28;20276;-52
2023/04/03 06:36:07;;;;;;;2.33;2.13;;;11.60;44.50;;;;;;5040637;28;20574;-53
2023/04/03 06:38:34;;;;;;;2.67;2.47;;;11.70;45.00;;;;;;5036253;28;20256;-54
2023/04/03 06:41:00;;;;;;;3.93;2.50;;;11.70;44.10;;;;;;5039920;28;20529;-51
2023/04/03 06:43:26;;;;;;;4.33;2.90;;;11.70;44.30;;;;;;5037620;28;20576;-52
2023/04/03 06:45:52;;;;;;;2.63;2.27;;;11.80;44.90;;;;;;5042332;28;20448;-55
2023/04/03 06:48:18;;;;;;;3.20;2.23;;;11.80;44.00;;;;;;5040265;28;20997;-55
2023/04/03 06:50:44;;;;;;;3.50;2.67;;;11.90;43.50;;;;;;5044577;28;20537;-55
2023/04/03 06:53:09;;;;;;;3.47;2.90;;;11.80;43.30;;;;;;5044867;28;20517;-56
2023/04/03 06:55:36;;;;;;;7.33;2.67;;;11.50;43.30;;;;;;5043352;28;20993;-51
2023/04/03 06:58:03;;;;;;;6.30;3.13;;;11.50;44.60;;;;;;5040632;28;20204;-50
2023/04/03 07:00:30;;;;;;;3.90;2.50;;;11.50;45.90;;;;;;5037523;28;20813;-51
2023/04/03 07:02:57;;;;;;;2.57;2.37;;;11.60;46.40;;;;;;5038229;28;20819;-51
2023/04/03 07:05:23;;;;;;;4.43;2.83;;;11.80;45.60;;;;;;5033042;28;20455;-50
2023/04/03 07:07:50;;;;;;;7.10;2.30;;;11.60;44.60;;;;;;5035017;28;20447;-52
2023/04/03 07:10:16;;;;;;;2.57;2.37;;;11.20;43.90;;;;;;5044449;28;20485;-48
2023/04/03 07:12:41;;;;;;;4.40;2.77;;;11.10;44.10;;;;;;5042209;28;20472;-48
2023/04/03 07:15:08;;;;;;;3.13;2.50;;;11.00;45.30;;;;;;5044345;28;20930;-50
2023/04/03 07:17:34;;;;;;;2.43;2.20;;;10.80;45.80;;;;;;5040892;28;20205;-50
2023/04/03 07:20:00;;;;;;;2.50;2.30;;;10.70;45.50;;;;;;5052216;28;20431;-49
2023/04/03 07:22:25;;;;;;;6.43;2.93;;;10.50;45.30;;;;;;5047626;28;20439;-51
2023/04/03 07:24:51;;;;;;;5.60;2.80;;;10.60;46.20;;;;;;5051261;28;20204;-49
2023/04/03 07:27:17;;;;;;;4.33;2.60;;;10.50;46.20;;;;;;5048125;28;20628;-49
2023/04/03 07:29:43;;;;;;;2.67;2.47;;;10.70;46.40;;;;;;5042227;28;20270;-50
2023/04/03 07:32:09;;;;;;;3.10;2.80;;;10.80;45.90;;;;;;5033540;28;20456;-52
2023/04/03 07:34:35;;;;;;;3.00;2.70;;;10.70;45.70;;;;;;5040816;28;20440;-50
2023/04/03 07:37:02;;;;;;;3.60;2.47;;;10.50;45.50;;;;;;5048218;28;21333;-52
2023/04/03 07:39:28;;;;;;;3.00;2.57;;;10.50;46.40;;;;;;5032885;28;20440;-48
2023/04/03 07:41:55;;;;;;;4.33;2.27;;;10.50;46.40;;;;;;5048191;28;20447;-48
2023/04/03 07:44:21;;;;;;;3.60;3.30;;;10.40;46.40;;;;;;5038745;28;20445;-50
2023/04/03 07:46:48;;;;;;;4.37;2.50;;;10.40;46.30;;;;;;5052007;28;20506;-50
2023/04/03 07:49:14;;;;;;;4.43;2.67;;;10.40;46.50;;;;;;5032927;28;20221;-49
2023/04/03 07:51:40;;;;;;;2.67;2.43;;;10.30;46.40;;;;;;5043607;28;20958;-50
2023/04/03 07:54:06;;;;;;;3.43;2.57;;;10.40;46.40;;;;;;5041227;28;20557;-53
2023/04/03 07:56:32;;;;;;;3.00;2.57;;;10.20;46.10;;;;;;5041465;28;20579;-50
2023/04/03 07:58:57;;;;;;;2.37;2.17;;;10.30;46.60;;;;;;5045100;28;20189;-48
2023/04/03 08:01:23;;;;;;;5.43;2.63;;;10.40;47.10;;;;;;5050230;28;20188;-49
2023/04/03 08:03:48;;;;;;;2.40;2.13;;;10.50;46.40;;;;;;5048913;28;20272;-48
2023/04/03 08:06:14;;;;;;;3.83;2.33;;;10.70;46.20;;;;;;5037408;28;20570;-48
2023/04/03 08:08:41;;;;;;;2.53;2.33;;;10.80;45.90;;;;;;5034872;28;20686;-49
2023/04/03 08:11:07;;;;;;;5.37;2.97;;;11.00;46.10;;;;;;5048390;28;20863;-49
2023/04/03 08:13:35;;;;;;;2.43;2.27;;;10.90;45.30;;;;;;5046657;28;20546;-49
2023/04/03 08:16:09;;;;;;;2.77;2.57;;;11.10;45.50;;;;;;5041617;28;20499;-51
2023/04/03 08:18:34;;;;;;;2.60;2.40;;;11.10;45.60;;;;;;5050367;28;20434;-51
2023/04/03 08:21:00;;;;;;;2.93;2.73;;;11.30;46.10;;;;;;5052278;28;20423;-49
2023/04/03 08:23:26;;;;;;;4.10;2.60;;;11.20;45.90;;;;;;5050244;28;20192;-50
2023/04/03 08:25:51;;;;;;;3.50;2.43;;;11.30;45.70;;;;;;5051735;28;20201;-51
2023/04/03 08:28:17;;;;;;;3.23;2.40;;;11.10;45.50;;;;;;5044000;28;20188;-48
2023/04/03 08:30:43;;;;;;;3.53;2.50;;;10.90;44.70;;;;;;5041711;28;20753;-50
2023/04/03 08:33:10;;;;;;;3.00;2.07;;;11.00;45.60;;;;;;5031837;28;20201;-52
2023/04/03 08:35:42;;;;;;;2.83;2.63;;;11.20;45.20;;;;;;5031736;28;20880;-53
2023/04/03 08:38:09;;;;;;;2.70;2.50;;;11.30;45.40;;;;;;5031357;28;20444;-49
2023/04/03 08:40:35;;;;;;;2.70;2.23;;;11.20;44.80;;;;;;5044525;28;20831;-52
2023/04/03 08:43:33;;;;;;;3.53;2.70;;;11.00;44.60;;;;;;5051579;28;21248;-52
2023/04/03 08:46:02;;;;;;;6.47;2.80;;;11.30;45.60;;;;;;5051705;28;20485;-49
2023/04/03 08:48:32;;;;;;;2.70;2.43;;;11.30;44.80;;;;;;5048445;28;20449;-49
2023/04/03 08:51:02;;;;;;;4.87;2.77;;;11.40;44.80;;;;;;5046353;28;20451;-50
2023/04/03 08:53:33;;;;;;;2.83;2.60;;;11.20;45.00;;;;;;5044635;28;20479;-49
2023/04/03 08:56:04;;;;;;;3.97;2.90;;;11.20;44.80;;;;;;5042700;28;20500;-49
2023/04/03 08:58:44;;;;;;;3.57;2.57;;;11.10;44.20;;;;;;5035544;28;21289;-49
2023/04/03 09:01:46;;;;;;;3.10;2.60;;;11.00;44.30;;;;;;5043903;28;20451;-50
2023/04/03 09:04:15;;;;;;;2.87;2.23;;;10.90;43.90;;;;;;5034013;28;20443;-50
2023/04/03 09:06:46;;;;;;;2.87;2.60;;;10.80;44.70;;;;;;5035991;28;20428;-49
2023/04/03 09:09:17;;;;;;;2.70;2.40;;;10.90;45.00;;;;;;5046197;28;20440;-50
2023/04/03 09:11:49;;;;;;;3.30;2.33;;;10.90;45.20;;;;;;5044188;28;20445;-50
2023/04/03 09:14:23;;;;;;;4.50;2.80;;;11.20;46.10;;;;;;5032876;28;20452;-48
2023/04/03 09:16:56;;;;;;;3.00;2.80;;;11.40;45.90;;;;;;5039205;28;21316;-53
2023/04/03 09:19:32;;;;;;;2.90;2.70;;;11.60;45.40;;;;;;5041449;28;20456;-49
2023/04/03 09:22:23;;;;;;;3.80;2.07;;;11.50;45.60;;;;;;5045619;28;20533;-50
2023/04/03 09:25:00;;;;;;;2.63;2.43;;;11.60;44.90;;;;;;5039261;28;20516;-50
2023/04/03 09:27:26;;;;;;;3.53;2.43;;;11.20;43.40;;;;;;5036354;28;20827;-50
2023/04/03 09:29:55;;;;;;;5.37;2.40;;;11.10;43.60;;;;;;5041942;28;20443;-53
2023/04/03 09:32:32;;;;;;;2.90;2.43;;;10.90;43.40;;;;;;5040377;28;20463;-51
2023/04/03 09:35:25;;;;;;;3.47;2.13;;;10.90;43.90;;;;;;5038876;28;20450;-52
2023/04/03 09:38:13;;;;;;;2.57;1.90;;;10.80;43.30;;;;;;5033704;28;20559;-50
2023/04/03 09:40:45;;;;;;;4.30;2.63;;;10.80;44.00;;;;;;5045296;28;21011;-51
2023/04/03 09:43:17;;;;;;;3.40;2.83;;;10.90;44.70;;;;;;5034829;28;20540;-51
2023/04/03 09:45:45;;;;;;;3.07;2.63;;;11.10;45.80;;;;;;5041243;28;20466;-53
2023/04/03 09:48:13;;;;;;;3.57;2.30;;;11.30;46.30;;;;;;5034250;28;20441;-50
2023/04/03 09:51:01;;;;;;;2.43;2.23;;;11.50;46.00;;;;;;5040244;28;20551;-51
2023/04/03 09:53:29;;;;;;;3.87;2.60;;;11.70;46.20;;;;;;5045445;28;20998;-52
2023/04/03 09:55:55;;;;;;;3.10;2.43;;;11.90;45.80;;;;;;5038019;28;22696;-51
2023/04/03 09:58:40;;;;;;;5.70;2.63;;;12.00;45.50;;;;;;5039589;28;20447;-51
2023/04/03 10:01:28;;;;;;;3.60;2.20;;;12.10;44.30;;;;;;5037774;28;20459;-52
2023/04/03 10:04:13;;;;;;;4.67;2.27;;;12.30;44.40;;;;;;5040415;28;20449;-50
2023/04/03 10:06:46;;;;;;;5.50;2.40;;;12.30;43.70;;;;;;5032958;28;20457;-51
2023/04/03 10:09:30;;;;;;;3.83;2.90;;;12.40;43.40;;;;;;5043108;28;21027;-52
2023/04/03 10:12:06;;;;;;;5.97;2.43;;;12.20;44.10;;;;;;5040638;28;21013;-51
2023/04/03 10:14:50;;;;;;;2.37;2.17;;;12.20;43.60;;;;;;5042317;28;20578;-51
2023/04/03 10:17:26;;;;;;;3.17;2.87;;;12.10;43.90;;;;;;5037003;28;20485;-53
2023/04/03 10:20:16;;;;;;;3.13;2.20;;;12.00;44.50;;;;;;5035977;28;20819;-52
2023/04/03 10:23:30;;;;;;;2.20;2.00;;;12.20;43.50;;;;;;5047945;28;20486;-53
2023/04/03 10:26:04;;;;;;;2.23;2.03;;;12.30;43.20;;;;;;5031052;28;20464;-52
2023/04/03 10:28:54;;;;;;;2.43;2.23;;;12.40;43.90;;;;;;5038618;28;20796;-50
2023/04/03 10:31:44;;;;;;;2.27;2.07;;;12.40;43.50;;;;;;5036576;28;20444;-50
2023/04/03 10:34:23;;;;;;;3.73;2.30;;;12.40;42.60;;;;;;5033534;28;20454;-51
2023/04/03 10:37:07;;;;;;;2.70;2.20;;;12.30;42.40;;;;;;5029828;28;20562;-51
2023/04/03 10:39:58;;;;;;;2.80;1.80;;;12.00;41.70;;;;;;5040986;28;20965;-53
2023/04/03 10:42:33;;;;;;;8.57;1.90;;;11.90;41.10;;;;;;5038772;28;21359;-50
2023/04/03 10:45:43;;;;;;;3.00;2.17;;;11.90;40.10;;;;;;5042899;28;20882;-51
2023/04/03 10:48:25;;;;;;;2.03;1.83;;;11.90;40.40;;;;;;5020425;28;20454;-52
2023/04/03 10:51:28;;;;;;;2.10;1.90;;;12.30;40.80;;;;;;5043767;28;21008;-53
2023/04/03 10:54:27;;;;;;;4.00;2.50;;;12.40;40.00;;;;;;5043962;28;20569;-54
2023/04/03 10:57:01;;;;;;;3.20;2.10;;;12.40;39.40;;;;;;5041839;28;20490;-52
2023/04/03 10:59:38;;;;;;;1.57;1.47;;;12.10;38.50;;;;;;5049433;28;20856;-52
2023/04/03 11:02:22;;;;;;;2.10;2.00;;;11.70;37.90;;;;;;5050666;28;20450;-52
2023/04/03 11:04:54;;;;;;;2.33;1.73;;;11.70;38.00;;;;;;5042732;28;20450;-52
2023/04/03 11:07:31;;;;;;;6.40;2.10;;;11.80;38.10;;;;;;5048250;28;20532;-51
2023/04/03 11:10:30;;;;;;;2.30;1.90;;;11.70;37.90;;;;;;5039339;28;20778;-51
2023/04/03 11:13:08;;;;;;;2.20;1.77;;;11.80;38.30;;;;;;5037758;28;20451;-51
2023/04/03 11:15:33;;;;;;;1.67;1.57;;;11.90;38.00;;;;;;5047457;28;20470;-52
2023/04/03 11:18:09;;;;;;;3.03;2.10;;;11.70;37.80;;;;;;5051527;28;20438;-51
2023/04/03 11:20:37;;;;;;;2.43;1.60;;;11.70;38.50;;;;;;5048086;28;20621;-54
2023/04/03 11:23:05;;;;;;;2.90;1.97;;;11.70;40.90;;;;;;5041137;28;20447;-51
2023/04/03 11:25:34;;;;;;;2.80;1.70;;;11.80;41.10;;;;;;5042173;28;20480;-52
2023/04/03 11:28:03;;;;;;;3.10;2.33;;;11.60;42.00;;;;;;5063334;28;20961;-52
2023/04/03 11:30:53;;;;;;;5.27;2.60;;;11.80;41.90;;;;;;5050263;28;20443;-52
2023/04/03 11:33:31;;;;;;;7.30;2.50;;;11.90;42.20;;;;;;5042934;28;20624;-51
2023/04/03 11:36:23;;;;;;;3.67;1.93;;;11.80;42.20;;;;;;5035060;28;20544;-52
2023/04/03 11:38:57;;;;;;;3.47;2.13;;;12.00;43.00;;;;;;5042313;28;20965;-54
2023/04/03 11:41:31;;;;;;;6.47;2.13;;;12.10;42.00;;;;;;5042346;28;20513;-52
2023/04/03 11:44:04;;;;;;;3.50;2.07;;;12.20;41.00;;;;;;5037095;28;20491;-52
2023/04/03 11:46:56;;;;;;;4.90;1.93;;;12.30;41.50;;;;;;5041962;28;20444;-53
2023/04/03 11:49:55;;;;;;;3.20;1.80;;;12.20;41.30;;;;;;5046538;28;20447;-50
2023/04/03 11:52:38;;;;;;;3.10;1.77;;;11.90;41.50;;;;;;4997699;28;20521;-49
2023/04/03 11:55:20;;;;;;;3.30;1.80;;;12.10;41.50;;;;;;5048322;28;20565;-52
2023/04/03 11:57:47;;;;;;;3.43;2.07;;;12.20;41.70;;;;;;5039509;28;20590;-48
2023/04/03 12:00:43;;;;;;;4.43;2.10;;;12.10;41.10;;;;;;5041090;28;20447;-49
2023/04/03 12:03:24;;;;;;;2.33;2.13;;;12.40;42.10;;;;;;5037911;28;20557;-48
2023/04/03 12:06:10;;;;;;;5.93;2.37;;;12.50;42.60;;;;;;5042936;28;20494;-50
2023/04/03 12:08:41;;;;;;;2.60;1.90;;;12.50;41.60;;;;;;5018022;28;20454;-50
2023/04/03 12:11:10;;;;;;;1.60;1.50;;;12.60;41.20;;;;;;5042656;28;20975;-52
2023/04/03 12:13:39;;;;;;;2.60;2.40;;;12.70;39.80;;;;;;5038136;28;20510;-50
2023/04/03 12:16:22;;;;;;;4.93;2.10;;;12.70;39.20;;;;;;5046992;28;20478;-51
2023/04/03 12:18:53;;;;;;;3.20;2.13;;;12.90;39.60;;;;;;5035174;28;20443;-50
2023/04/03 12:21:43;;;;;;;2.20;1.90;;;13.00;37.90;;;;;;5045709;28;20614;-49
2023/04/03 12:24:09;;;;;;;2.20;2.03;;;12.80;36.10;;;;;;5043291;28;20443;-50
2023/04/03 12:26:48;;;;;;;4.70;2.87;;;12.80;36.80;;;;;;5040672;28;20450;-51
2023/04/03 12:29:40;;;;;;;3.63;1.87;;;13.10;38.10;;;;;;5037475;28;20542;-49
2023/04/03 12:32:12;;;;;;;4.00;1.90;;;12.70;37.70;;;;;;5044163;28;20894;-48
2023/04/03 12:35:06;;;;;;;4.53;2.07;;;12.40;39.30;;;;;;5042193;28;20532;-53
2023/04/03 12:38:09;;;;;;;2.77;2.07;;;12.60;39.80;;;;;;5032167;28;20483;-52
2023/04/03 12:40:42;;;;;;;3.17;1.97;;;12.40;39.40;;;;;;5031946;28;20539;-52
2023/04/03 12:43:34;;;;;;;2.27;2.07;;;12.40;39.40;;;;;;5040141;28;20440;-49
2023/04/03 12:46:09;;;;;;;2.67;2.03;;;12.40;40.20;;;;;;5043527;28;20805;-53
2023/04/03 12:48:51;;;;;;;2.00;1.60;;;12.60;39.80;;;;;;5041200;28;20572;-52
2023/04/03 12:51:40;;;;;;;3.77;2.10;;;12.80;39.30;;;;;;5038132;28;20442;-49
2023/04/03 12:54:23;;;;;;;2.40;1.97;;;13.10;38.60;;;;;;5044742;28;20494;-48
2023/04/03 12:56:50;;;;;;;2.50;2.03;;;13.00;36.50;;;;;;5043758;28;20495;-48
2023/04/03 12:59:24;;;;;;;2.97;2.03;;;12.80;37.60;;;;;;5030204;28;20935;-49
2023/04/03 13:01:55;;;;;;;3.10;2.13;;;12.70;37.70;;;;;;5040715;28;20454;-51
2023/04/03 13:04:21;;;;;;;2.40;2.07;;;12.80;38.20;;;;;;5042493;28;20439;-49
2023/04/03 13:06:47;;;;;;;2.30;2.07;;;12.70;38.00;;;;;;5045910;28;21225;-48
2023/04/03 13:09:28;;;;;;;3.20;2.17;;;12.90;38.40;;;;;;5049384;28;20504;-50